Time;durP1;ratioP1;P1;durP2;ratioP2;P2;SDS_P1;SDS_P2;PMS_P1;PMS_P2;Temp;Humidity;BMP_temperature;BMP_pressure;BME280_temperature;BME280_humidity;BME280_pressure;Samples;Min_cycle;Max_cycle;Signal;HPM_P1;HPM_P2
2023/04/04 00:02:18;;;;;;;8.35;1.60;;;12.30;99.90;;;;;;5051195;28;20029;-64
2023/04/04 00:04:44;;;;;;;6.85;1.63;;;12.20;99.90;;;;;;5050931;28;20076;-63
2023/04/04 00:07:10;;;;;;;4.90;1.70;;;12.10;99.90;;;;;;5051011;28;20033;-64
2023/04/04 00:09:36;;;;;;;5.43;1.57;;;12.00;99.90;;;;;;5051401;28;20041;-64
2023/04/04 00:12:02;;;;;;;9.45;2.10;;;11.90;99.90;;;;;;5050604;28;20061;-64
2023/04/04 00:14:28;;;;;;;8.73;2.20;;;11.90;99.90;;;;;;5032772;28;20040;-67
2023/04/04 00:16:54;;;;;;;8.87;2.03;;;11.90;99.90;;;;;;5050831;28;20021;-63
2023/04/04 00:19:20;;;;;;;10.70;2.35;;;11.90;99.90;;;;;;5050691;28;20256;-63
2023/04/04 00:21:49;;;;;;;10.37;1.53;;;11.80;99.90;;;;;;5050899;28;20190;-63
2023/04/04 00:24:15;;;;;;;14.57;2.13;;;11.90;99.90;;;;;;5033067;28;20079;-65
2023/04/04 00:26:41;;;;;;;7.22;1.90;;;12.10;99.90;;;;;;5050780;28;20461;-68
2023/04/04 00:29:07;;;;;;;13.52;2.05;;;12.00;99.90;;;;;;5051030;28;20107;-64
2023/04/04 00:31:33;;;;;;;10.37;1.87;;;11.90;99.90;;;;;;5050568;28;20045;-64
2023/04/04 00:34:01;;;;;;;6.88;1.75;;;11.80;99.90;;;;;;5050644;28;20021;-64
2023/04/04 00:36:27;;;;;;;8.52;2.13;;;11.80;99.90;;;;;;5050615;28;20104;-64
2023/04/04 00:38:53;;;;;;;12.33;2.03;;;11.80;99.90;;;;;;5050563;28;20060;-69
2023/04/04 00:41:20;;;;;;;11.68;2.95;;;11.90;99.90;;;;;;5050846;28;20044;-69
2023/04/04 00:43:46;;;;;;;17.05;2.00;;;11.80;99.90;;;;;;5050348;28;20037;-68
2023/04/04 00:46:14;;;;;;;7.18;1.80;;;11.90;99.90;;;;;;5050554;28;20308;-68
2023/04/04 00:48:43;;;;;;;12.40;2.00;;;11.90;99.90;;;;;;5050272;28;20017;-68
2023/04/04 00:51:09;;;;;;;7.82;1.98;;;11.80;99.90;;;;;;5050821;28;20388;-67
2023/04/04 00:53:37;;;;;;;15.23;2.15;;;11.80;99.90;;;;;;5050482;28;20100;-68
2023/04/04 00:56:03;;;;;;;14.60;1.80;;;11.80;99.90;;;;;;5032527;28;20434;-67
2023/04/04 00:58:29;;;;;;;8.52;1.67;;;11.80;99.90;;;;;;5050668;28;20029;-67
2023/04/04 01:00:55;;;;;;;10.32;1.88;;;11.70;99.90;;;;;;5050186;28;20067;-69
2023/04/04 01:03:22;;;;;;;10.03;1.97;;;11.70;99.90;;;;;;5032130;28;20024;-68
2023/04/04 01:05:48;;;;;;;8.38;2.03;;;11.70;99.90;;;;;;5050201;28;20267;-68
2023/04/04 01:08:21;;;;;;;6.77;1.90;;;11.70;99.90;;;;;;5050220;28;20025;-68
2023/04/04 01:10:48;;;;;;;10.77;2.17;;;11.80;99.90;;;;;;5050452;28;20112;-67
2023/04/04 01:13:15;;;;;;;9.55;2.20;;;11.80;99.90;;;;;;5050584;28;20040;-68
2023/04/04 01:15:41;;;;;;;17.60;2.20;;;11.70;99.90;;;;;;5050013;28;20029;-67
2023/04/04 01:18:11;;;;;;;10.38;2.03;;;11.70;99.90;;;;;;5049998;28;20033;-67
2023/04/04 01:20:51;;;;;;;8.55;1.70;;;11.60;99.90;;;;;;5050931;28;20128;-68
2023/04/04 01:23:18;;;;;;;14.13;1.90;;;11.60;99.90;;;;;;5050131;28;20040;-67
2023/04/04 01:25:47;;;;;;;11.70;2.10;;;11.50;99.90;;;;;;5031935;28;20124;-68
2023/04/04 01:28:13;;;;;;;11.10;1.98;;;11.40;99.90;;;;;;5049980;28;20067;-68
2023/04/04 01:30:41;;;;;;;13.20;2.37;;;11.40;99.90;;;;;;5050273;28;20426;-68
2023/04/04 01:33:23;;;;;;;4.28;1.40;;;11.40;99.90;;;;;;5050159;28;20033;-68
2023/04/04 01:36:01;;;;;;;8.43;2.17;;;11.40;99.90;;;;;;5050116;28;20050;-69
2023/04/04 01:38:35;;;;;;;7.93;2.00;;;11.50;99.90;;;;;;5050344;28;20033;-68
2023/04/04 01:41:03;;;;;;;8.30;1.58;;;11.60;99.90;;;;;;5032020;28;20357;-69
2023/04/04 01:43:32;;;;;;;7.28;1.67;;;11.70;99.90;;;;;;5051115;28;20514;-69
2023/04/04 01:45:59;;;;;;;9.18;1.98;;;11.70;99.90;;;;;;5054002;28;20039;-69
2023/04/04 01:48:26;;;;;;;10.50;1.90;;;11.60;99.90;;;;;;5053823;28;20465;-69
2023/04/04 01:50:52;;;;;;;11.98;2.28;;;11.70;99.90;;;;;;5053512;28;20032;-68
2023/04/04 01:53:18;;;;;;;13.73;1.60;;;11.70;99.90;;;;;;5053679;28;20052;-68
2023/04/04 01:55:45;;;;;;;8.38;1.80;;;11.70;99.90;;;;;;5053848;28;20083;-68
2023/04/04 01:58:11;;;;;;;10.07;1.57;;;11.70;99.90;;;;;;5053522;28;20107;-69
2023/04/04 02:00:37;;;;;;;9.80;1.83;;;11.70;99.90;;;;;;5053678;28;20432;-68
2023/04/04 02:03:03;;;;;;;6.10;1.40;;;11.70;99.90;;;;;;5053468;28;20457;-69
2023/04/04 02:05:29;;;;;;;11.43;2.30;;;11.60;99.90;;;;;;5053505;28;20018;-69
2023/04/04 02:07:56;;;;;;;10.85;1.88;;;11.60;99.90;;;;;;5053360;28;20098;-69
2023/04/04 02:10:22;;;;;;;8.48;1.55;;;11.60;99.90;;;;;;5053510;28;20410;-69
2023/04/04 02:12:52;;;;;;;8.33;1.53;;;11.70;99.90;;;;;;5053255;28;20062;-68
2023/04/04 02:15:18;;;;;;;11.68;1.73;;;11.70;99.90;;;;;;5053380;28;20021;-69
2023/04/04 02:17:47;;;;;;;13.45;2.58;;;11.60;99.90;;;;;;5053610;28;20040;-67
2023/04/04 02:20:14;;;;;;;7.78;1.63;;;11.50;99.90;;;;;;5053102;28;20013;-69
2023/04/04 02:22:40;;;;;;;8.25;2.17;;;11.40;99.90;;;;;;5035044;28;20044;-69
2023/04/04 02:25:06;;;;;;;10.13;2.05;;;11.40;99.90;;;;;;5053495;28;20021;-68
2023/04/04 02:27:32;;;;;;;8.32;1.80;;;11.40;99.90;;;;;;5034948;28;20311;-68
2023/04/04 02:29:58;;;;;;;8.82;1.95;;;11.30;99.90;;;;;;5052868;28;20104;-68
2023/04/04 02:32:24;;;;;;;9.60;1.60;;;11.40;99.90;;;;;;5052036;28;20126;-68
2023/04/04 02:34:50;;;;;;;11.50;2.25;;;11.40;99.90;;;;;;5034299;28;20548;-69
2023/04/04 02:37:16;;;;;;;14.02;1.80;;;11.30;99.90;;;;;;5053042;28;20029;-67
2023/04/04 02:39:42;;;;;;;9.27;1.90;;;11.30;99.90;;;;;;5052761;28;20021;-68
2023/04/04 02:42:09;;;;;;;8.50;2.13;;;11.30;99.90;;;;;;5052697;28;20032;-68
2023/04/04 02:44:35;;;;;;;8.05;2.05;;;11.30;99.90;;;;;;5052760;28;20077;-67
2023/04/04 02:47:01;;;;;;;10.75;2.10;;;11.40;99.90;;;;;;5052579;28;20021;-68
2023/04/04 02:49:28;;;;;;;11.30;1.67;;;11.40;99.90;;;;;;5052450;28;20033;-67
2023/04/04 02:51:55;;;;;;;9.75;1.77;;;11.40;99.90;;;;;;5052734;28;20065;-68
2023/04/04 02:54:21;;;;;;;9.38;1.85;;;11.40;99.90;;;;;;5053162;28;20021;-68
2023/04/04 02:56:47;;;;;;;10.88;1.73;;;11.50;99.90;;;;;;5053503;28;20043;-68
2023/04/04 02:59:13;;;;;;;7.40;1.98;;;11.60;99.90;;;;;;5053153;28;20104;-68
2023/04/04 03:01:41;;;;;;;18.23;2.20;;;11.60;99.90;;;;;;5053182;28;20047;-68
2023/04/04 03:04:07;;;;;;;12.90;2.08;;;11.60;99.90;;;;;;5052705;28;20025;-66
2023/04/04 03:06:33;;;;;;;10.43;2.47;;;11.70;99.90;;;;;;5053160;28;20052;-67
2023/04/04 03:08:59;;;;;;;11.18;1.70;;;11.70;99.90;;;;;;5053465;28;20025;-68
2023/04/04 03:11:26;;;;;;;9.05;1.50;;;11.60;99.90;;;;;;5053383;28;20041;-65
2023/04/04 03:13:53;;;;;;;10.43;1.90;;;11.60;99.90;;;;;;5054030;28;20100;-67
2023/04/04 03:16:19;;;;;;;9.88;1.90;;;11.60;99.90;;;;;;5053461;28;20029;-65
2023/04/04 03:18:45;;;;;;;8.00;1.80;;;11.60;99.90;;;;;;5053187;28;20022;-68
2023/04/04 03:21:12;;;;;;;14.60;2.17;;;11.60;99.90;;;;;;5053907;28;20105;-68
2023/04/04 03:23:38;;;;;;;8.80;1.73;;;11.60;99.90;;;;;;5053254;28;20021;-69
2023/04/04 03:26:05;;;;;;;12.13;2.13;;;11.70;99.90;;;;;;5053892;28;20274;-68
2023/04/04 03:28:31;;;;;;;10.65;2.00;;;11.70;99.90;;;;;;5053533;28;20029;-67
2023/04/04 03:31:03;;;;;;;11.60;1.90;;;11.60;99.90;;;;;;5053709;28;20029;-67
2023/04/04 03:33:29;;;;;;;13.07;2.42;;;11.60;99.90;;;;;;5053567;28;20048;-67
2023/04/04 03:35:55;;;;;;;10.20;2.15;;;11.60;99.90;;;;;;5035248;28;20025;-68
2023/04/04 03:38:21;;;;;;;15.63;2.72;;;11.60;99.90;;;;;;5053294;28;20075;-68
2023/04/04 03:40:47;;;;;;;9.73;2.07;;;11.70;99.90;;;;;;5053261;28;20492;-67
2023/04/04 03:43:13;;;;;;;12.18;2.58;;;11.70;99.90;;;;;;5053380;28;20059;-63
2023/04/04 03:45:39;;;;;;;11.15;2.17;;;11.70;99.90;;;;;;5053419;28;20108;-67
2023/04/04 03:48:06;;;;;;;10.07;2.27;;;11.80;99.90;;;;;;5053204;28;20074;-67
2023/04/04 03:50:32;;;;;;;10.15;1.75;;;11.70;99.90;;;;;;5034820;28;20035;-67
2023/04/04 03:52:58;;;;;;;15.20;1.98;;;11.70;99.90;;;;;;5052949;28;20025;-67
2023/04/04 03:55:25;;;;;;;12.20;2.50;;;11.70;99.90;;;;;;5052889;28;20450;-68
2023/04/04 03:57:51;;;;;;;;;;;11.70;99.90;;;;;;5053295;28;20079;-69
2023/04/04 04:00:18;;;;;;;14.80;2.33;;;11.70;99.90;;;;;;5052780;28;19909;-66
2023/04/04 04:02:44;;;;;;;11.93;1.92;;;11.70;99.90;;;;;;5052691;28;20021;-69
2023/04/04 04:05:10;;;;;;;11.98;2.00;;;11.60;99.90;;;;;;5052501;28;20040;-69
2023/04/04 04:07:36;;;;;;;13.80;1.87;;;11.60;99.90;;;;;;5052084;28;20028;-68
2023/04/04 04:10:04;;;;;;;11.75;1.85;;;11.60;99.90;;;;;;5052589;28;20259;-68
2023/04/04 04:12:30;;;;;;;9.60;1.80;;;11.60;99.90;;;;;;5052338;28;20386;-69
2023/04/04 04:14:56;;;;;;;20.52;2.95;;;11.60;99.90;;;;;;5052582;28;20024;-69
2023/04/04 04:17:22;;;;;;;9.13;2.37;;;11.60;99.90;;;;;;5034915;28;20036;-67
2023/04/04 04:19:48;;;;;;;9.38;1.83;;;11.50;99.90;;;;;;5052664;28;20086;-68
2023/04/04 04:22:14;;;;;;;8.23;2.07;;;11.50;99.90;;;;;;5053359;28;20021;-68
2023/04/04 04:24:40;;;;;;;13.80;1.90;;;11.60;99.90;;;;;;5052540;28;20032;-65
2023/04/04 04:27:06;;;;;;;14.53;2.47;;;11.70;99.90;;;;;;5052568;28;20468;-69
2023/04/04 04:29:32;;;;;;;14.20;2.20;;;11.70;99.90;;;;;;5053221;28;20036;-68
2023/04/04 04:31:58;;;;;;;9.93;2.20;;;11.70;99.90;;;;;;5052742;28;20036;-68
2023/04/04 04:34:26;;;;;;;9.35;1.77;;;11.70;99.90;;;;;;5052746;28;20024;-67
2023/04/04 04:36:52;;;;;;;9.25;1.88;;;11.70;99.90;;;;;;5052880;28;20055;-69
2023/04/04 04:39:19;;;;;;;11.60;1.92;;;11.70;99.90;;;;;;5034943;28;20423;-67
2023/04/04 04:41:45;;;;;;;17.60;2.92;;;11.70;99.90;;;;;;5052734;28;20021;-69
2023/04/04 04:44:11;;;;;;;13.15;2.33;;;11.70;99.90;;;;;;5053029;28;20021;-69
2023/04/04 04:46:37;;;;;;;28.08;3.42;;;11.70;99.90;;;;;;5052312;28;20086;-65
2023/04/04 04:49:04;;;;;;;16.23;2.23;;;11.70;99.90;;;;;;5050933;28;20021;-67
2023/04/04 04:51:30;;;;;;;15.48;2.35;;;11.70;99.90;;;;;;5052269;28;20291;-67
2023/04/04 04:53:56;;;;;;;12.03;2.50;;;11.80;99.90;;;;;;5052460;28;20017;-69
2023/04/04 04:56:22;;;;;;;12.43;2.10;;;11.80;99.90;;;;;;5052678;28;20062;-66
2023/04/04 04:58:49;;;;;;;9.80;2.10;;;11.80;99.90;;;;;;5050626;28;20055;-68
2023/04/04 05:01:16;;;;;;;9.07;2.25;;;11.90;99.90;;;;;;5050792;28;20052;-67
2023/04/04 05:03:42;;;;;;;12.18;2.58;;;11.80;99.90;;;;;;5050340;28;20025;-68
2023/04/04 05:06:08;;;;;;;11.48;2.13;;;11.90;99.90;;;;;;5050760;28;20052;-68
2023/04/04 05:08:34;;;;;;;14.47;2.30;;;11.90;99.90;;;;;;5052218;28;20477;-69
2023/04/04 05:11:00;;;;;;;12.30;2.35;;;12.00;99.90;;;;;;5050053;28;20049;-69
2023/04/04 05:13:26;;;;;;;13.00;2.78;;;12.00;99.90;;;;;;5051205;28;20048;-70
2023/04/04 05:15:52;;;;;;;13.82;2.10;;;12.10;99.90;;;;;;5052449;28;20036;-69
2023/04/04 05:18:18;;;;;;;15.90;2.33;;;12.20;99.90;;;;;;5053327;28;20389;-69
2023/04/04 05:20:58;;;;;;;15.48;2.30;;;12.30;99.90;;;;;;5056326;28;20048;-70
2023/04/04 05:23:24;;;;;;;13.15;2.58;;;12.40;99.90;;;;;;5056248;28;20060;-70
2023/04/04 05:25:52;;;;;;;13.60;3.07;;;12.40;99.90;;;;;;5056190;28;20078;-70
2023/04/04 05:28:22;;;;;;;13.38;2.20;;;12.40;99.90;;;;;;5056020;28;20028;-67
2023/04/04 05:30:49;;;;;;;18.55;2.17;;;12.50;99.90;;;;;;5054916;28;20458;-68
2023/04/04 05:33:15;;;;;;;15.25;2.80;;;12.60;99.90;;;;;;5056008;28;20098;-70
2023/04/04 05:35:41;;;;;;;11.52;2.20;;;13.50;99.90;;;;;;5037656;28;20385;-70
2023/04/04 05:38:07;;;;;;;18.30;3.10;;;14.90;99.90;;;;;;5055497;28;20029;-70
2023/04/04 05:40:35;;;;;;;9.93;2.30;;;16.60;99.90;;;;;;5056076;28;20025;-70
2023/04/04 05:43:03;;;;;;;11.30;2.33;;;18.20;99.90;;;;;;5055176;28;20032;-71
2023/04/04 05:45:30;;;;;;;12.80;2.08;;;19.50;99.90;;;;;;5054619;28;20060;-72
2023/04/04 05:47:56;;;;;;;14.60;2.83;;;19.30;99.90;;;;;;5054988;28;20040;-73
2023/04/04 05:50:23;;;;;;;15.35;2.35;;;19.30;99.90;;;;;;5054750;28;20155;-67
2023/04/04 05:52:52;;;;;;;16.75;2.70;;;19.20;99.90;;;;;;5054789;28;20570;-71
2023/04/04 05:55:18;;;;;;;14.40;2.13;;;18.40;99.90;;;;;;5055120;28;20083;-69
2023/04/04 05:57:50;;;;;;;13.05;2.70;;;17.90;99.90;;;;;;5054406;28;20071;-71
2023/04/04 06:00:18;;;;;;;11.73;2.35;;;18.90;99.90;;;;;;5054757;28;20106;-71
2023/04/04 06:02:44;;;;;;;14.38;2.92;;;18.80;99.90;;;;;;5054350;28;20391;-71
2023/04/04 06:05:10;;;;;;;10.15;2.20;;;19.20;99.90;;;;;;5054180;28;20378;-71
2023/04/04 06:07:37;;;;;;;12.73;2.33;;;20.10;99.90;;;;;;5054379;28;20103;-74
2023/04/04 06:10:04;;;;;;;11.63;1.90;;;20.60;99.90;;;;;;5054832;28;20134;-68
2023/04/04 06:12:30;;;;;;;11.07;2.33;;;21.30;99.90;;;;;;5035372;28;20131;-71
2023/04/04 06:14:56;;;;;;;14.65;2.40;;;21.70;99.90;;;;;;5053836;28;20033;-70
2023/04/04 06:17:23;;;;;;;13.82;2.38;;;22.60;99.90;;;;;;5035828;28;20025;-70
2023/04/04 06:19:49;;;;;;;16.90;2.70;;;22.90;99.90;;;;;;5053787;28;20021;-72
2023/04/04 06:22:16;;;;;;;10.35;2.47;;;22.50;99.90;;;;;;5053774;28;20361;-72
2023/04/04 06:24:43;;;;;;;11.00;2.45;;;23.00;99.90;;;;;;5053897;28;20468;-71
2023/04/04 06:27:09;;;;;;;13.88;2.33;;;23.60;99.90;;;;;;5053992;28;20441;-72
2023/04/04 06:29:35;;;;;;;16.50;2.75;;;23.20;99.90;;;;;;5053747;28;20063;-71
2023/04/04 06:32:01;;;;;;;17.42;2.75;;;22.70;99.90;;;;;;5054239;28;20488;-73
2023/04/04 06:34:27;;;;;;;23.85;3.38;;;23.30;99.90;;;;;;5053644;28;20370;-72
2023/04/04 06:36:53;;;;;;;14.00;3.05;;;23.80;99.90;;;;;;5053514;28;20025;-71
2023/04/04 06:39:19;;;;;;;17.27;2.90;;;23.90;99.90;;;;;;5035345;28;20028;-72
2023/04/04 06:41:46;;;;;;;16.67;3.70;;;23.50;99.90;;;;;;5035756;28;20032;-72
2023/04/04 06:44:13;;;;;;;12.25;3.42;;;24.10;99.90;;;;;;5053585;28;20040;-71
2023/04/04 06:46:40;;;;;;;13.43;3.58;;;23.70;99.90;;;;;;5053836;28;20029;-72
2023/04/04 06:49:06;;;;;;;16.92;2.72;;;23.90;99.90;;;;;;5035238;28;20091;-69
2023/04/04 06:51:35;;;;;;;11.73;2.47;;;22.70;99.90;;;;;;5053200;28;20036;-72
2023/04/04 06:54:01;;;;;;;13.40;3.03;;;22.70;99.90;;;;;;5035379;28;20025;-70
2023/04/04 06:56:28;;;;;;;11.70;2.80;;;23.20;99.90;;;;;;5053670;28;20033;-68
2023/04/04 06:58:54;;;;;;;16.27;3.42;;;23.60;99.90;;;;;;5053169;28;20025;-69
2023/04/04 07:01:20;;;;;;;15.15;3.13;;;23.80;99.90;;;;;;5052863;28;20032;-68
2023/04/04 07:03:46;;;;;;;15.55;3.13;;;24.90;99.90;;;;;;5034838;28;20299;-69
2023/04/04 07:06:12;;;;;;;14.88;3.10;;;24.20;99.90;;;;;;5053459;28;20082;-69
2023/04/04 07:08:38;;;;;;;16.52;3.20;;;24.70;99.90;;;;;;5053256;28;20396;-69
2023/04/04 07:11:06;;;;;;;15.13;3.58;;;25.60;99.90;;;;;;5052730;28;20107;-69
2023/04/04 07:13:34;;;;;;;19.35;3.30;;;25.70;99.90;;;;;;5053120;28;20017;-70
2023/04/04 07:16:00;;;;;;;12.10;3.45;;;24.80;99.90;;;;;;5034716;28;20119;-69
2023/04/04 07:18:27;;;;;;;17.15;3.05;;;24.80;99.90;;;;;;5053014;28;20051;-65
2023/04/04 07:20:52;;;;;;;;;;;24.90;99.90;;;;;;5053163;28;20071;-66
2023/04/04 07:23:20;;;;;;;11.95;2.80;;;24.40;99.90;;;;;;5035121;28;19985;-65
2023/04/04 07:25:48;;;;;;;14.13;2.65;;;24.00;99.90;;;;;;5052794;28;20032;-66
2023/04/04 07:28:14;;;;;;;9.55;2.80;;;24.50;99.90;;;;;;5053099;28;20085;-71
2023/04/04 07:30:40;;;;;;;12.32;2.67;;;24.00;99.90;;;;;;5053252;28;20108;-66
2023/04/04 07:33:07;;;;;;;17.90;3.10;;;24.10;99.90;;;;;;5052952;28;20035;-66
2023/04/04 07:35:35;;;;;;;15.43;2.80;;;23.90;99.90;;;;;;5052644;28;20055;-66
2023/04/04 07:38:03;;;;;;;14.27;2.78;;;23.70;99.90;;;;;;5052760;28;20029;-66
2023/04/04 07:40:29;;;;;;;12.02;3.00;;;23.10;99.90;;;;;;5052092;28;20116;-71
2023/04/04 07:42:55;;;;;;;11.73;2.80;;;23.00;99.90;;;;;;5052302;28;20067;-69
2023/04/04 07:45:21;;;;;;;15.75;2.75;;;23.00;99.90;;;;;;5052519;28;20033;-71
2023/04/04 07:47:48;;;;;;;20.00;3.58;;;23.40;99.90;;;;;;5052802;28;20085;-67
2023/04/04 07:50:14;;;;;;;16.35;3.88;;;23.30;99.90;;;;;;5034516;28;20029;-68
2023/04/04 07:52:42;;;;;;;14.15;3.30;;;23.00;99.90;;;;;;5051839;28;20068;-65
2023/04/04 07:55:10;;;;;;;17.75;3.20;;;22.00;99.90;;;;;;5052194;28;20350;-65
2023/04/04 07:57:39;;;;;;;14.30;3.58;;;22.20;99.90;;;;;;5051858;28;20078;-66
2023/04/04 08:00:11;;;;;;;13.10;3.22;;;21.80;99.90;;;;;;5051744;28;20047;-64
2023/04/04 08:02:38;;;;;;;14.32;3.15;;;21.70;99.90;;;;;;5051977;28;20134;-66
2023/04/04 08:05:04;;;;;;;;;;;21.90;99.90;;;;;;5051959;28;20025;-66
2023/04/04 08:07:31;;;;;;;13.05;3.08;;;22.00;99.90;;;;;;5051503;28;19928;-65
2023/04/04 08:09:57;;;;;;;11.63;2.78;;;21.30;99.90;;;;;;5051802;28;20481;-65
2023/04/04 08:12:23;;;;;;;12.13;2.85;;;21.80;99.90;;;;;;5050926;28;20045;-65
2023/04/04 08:14:49;;;;;;;17.25;2.92;;;22.00;99.90;;;;;;5051788;28;20029;-64
2023/04/04 08:17:17;;;;;;;16.35;2.55;;;21.20;99.90;;;;;;5052246;28;20029;-68
2023/04/04 08:19:44;;;;;;;10.60;2.63;;;21.00;99.90;;;;;;5033468;28;20219;-68
2023/04/04 08:22:12;;;;;;;;;;;21.20;99.90;;;;;;5052388;28;20017;-71
2023/04/04 08:24:38;;;;;;;18.30;2.78;;;21.20;99.90;;;;;;5051822;28;19909;-70
2023/04/04 08:27:05;;;;;;;16.67;3.28;;;21.30;99.90;;;;;;5052163;28;20417;-70
2023/04/04 08:29:31;;;;;;;13.30;2.75;;;21.70;99.90;;;;;;5052183;28;20025;-70
2023/04/04 08:31:58;;;;;;;14.93;2.80;;;21.40;99.90;;;;;;5051564;28;20047;-70
2023/04/04 08:34:24;;;;;;;10.85;2.60;;;21.40;99.90;;;;;;5051286;28;20044;-69
2023/04/04 08:36:51;;;;;;;12.60;2.92;;;21.10;99.90;;;;;;5051847;28;20182;-70
2023/04/04 08:39:17;;;;;;;14.68;3.00;;;21.20;99.90;;;;;;5051941;28;20027;-69
2023/04/04 08:41:44;;;;;;;17.10;3.92;;;20.40;99.90;;;;;;5051648;28;20100;-69
2023/04/04 08:44:21;;;;;;;13.10;3.13;;;19.50;99.90;;;;;;5051818;28;20021;-68
2023/04/04 08:46:48;;;;;;;15.35;3.55;;;19.70;99.90;;;;;;5051510;28;20124;-70
2023/04/04 08:49:20;;;;;;;16.35;3.20;;;20.00;99.90;;;;;;5051325;28;20318;-69
2023/04/04 08:51:48;;;;;;;15.85;3.58;;;19.90;99.90;;;;;;5050916;28;20396;-68
2023/04/04 08:54:16;;;;;;;22.08;4.07;;;20.00;99.90;;;;;;5033313;28;20488;-68
2023/04/04 08:56:42;;;;;;;11.10;3.05;;;20.20;99.90;;;;;;5051318;28;20029;-70
2023/04/04 08:59:10;;;;;;;17.48;3.20;;;19.80;99.90;;;;;;5051117;28;20060;-67
2023/04/04 09:01:36;;;;;;;13.75;2.67;;;19.70;99.90;;;;;;5051246;28;20033;-69
2023/04/04 09:04:04;;;;;;;10.60;2.80;;;20.10;99.90;;;;;;5051287;28;20142;-66
2023/04/04 09:06:30;;;;;;;14.05;3.00;;;20.50;99.90;;;;;;5051187;28;20025;-69
2023/04/04 09:09:00;;;;;;;13.63;3.13;;;20.80;99.90;;;;;;5050341;28;20032;-68
2023/04/04 09:11:29;;;;;;;23.25;3.85;;;21.00;99.90;;;;;;5049802;28;20063;-70
2023/04/04 09:13:56;;;;;;;12.48;3.25;;;20.80;99.90;;;;;;5051203;28;20021;-69
2023/04/04 09:16:22;;;;;;;;;;;20.60;99.90;;;;;;5051087;28;20070;-68
2023/04/04 09:18:48;;;;;;;19.38;3.70;;;20.30;99.90;;;;;;5051207;28;19944;-70
2023/04/04 09:21:15;;;;;;;14.75;4.95;;;19.80;99.90;;;;;;5050636;28;20430;-69
2023/04/04 09:23:43;;;;;;;20.98;4.90;;;19.70;99.90;;;;;;5050756;28;20055;-70
2023/04/04 09:26:12;;;;;;;21.63;4.57;;;19.90;99.90;;;;;;5050800;28;20152;-69
2023/04/04 09:28:38;;;;;;;20.63;4.28;;;19.60;99.90;;;;;;5050730;28;20384;-68
2023/04/04 09:31:08;;;;;;;14.95;3.78;;;19.50;99.90;;;;;;5051313;28;20040;-70
2023/04/04 09:33:35;;;;;;;12.00;2.60;;;19.60;99.90;;;;;;5051377;28;20087;-69
2023/04/04 09:36:11;;;;;;;16.50;3.38;;;19.60;99.90;;;;;;5032673;28;20092;-70
2023/04/04 09:38:42;;;;;;;17.23;3.47;;;19.90;99.90;;;;;;5051111;28;20095;-70
2023/04/04 09:41:09;;;;;;;12.52;2.53;;;20.30;99.90;;;;;;5032745;28;20044;-69
2023/04/04 09:43:37;;;;;;;17.00;3.45;;;20.00;99.90;;;;;;5050994;28;20036;-69
2023/04/04 09:46:04;;;;;;;15.75;3.53;;;19.80;99.90;;;;;;5050805;28;20028;-69
2023/04/04 09:48:32;;;;;;;12.55;2.85;;;19.90;99.90;;;;;;5050864;28;20120;-69
2023/04/04 09:50:58;;;;;;;18.77;3.10;;;20.10;99.90;;;;;;5050454;28;20029;-69
2023/04/04 09:53:25;;;;;;;17.88;3.95;;;19.80;99.90;;;;;;5050423;28;20051;-69
2023/04/04 09:55:53;;;;;;;12.68;3.40;;;19.90;99.90;;;;;;5050683;28;20021;-69
2023/04/04 09:58:25;;;;;;;18.40;3.08;;;19.90;99.90;;;;;;5050797;28;20469;-69
2023/04/04 10:01:00;;;;;;;14.30;2.78;;;19.30;99.90;;;;;;5050846;28;20033;-69
2023/04/04 10:03:27;;;;;;;13.35;2.60;;;19.80;99.90;;;;;;5050606;28;20017;-68
2023/04/04 10:06:00;;;;;;;12.77;3.35;;;19.80;99.90;;;;;;5053641;28;20017;-69
2023/04/04 10:08:28;;;;;;;12.32;4.53;;;19.70;99.90;;;;;;5054161;28;20106;-68
2023/04/04 10:11:03;;;;;;;16.60;2.90;;;19.70;99.90;;;;;;5053951;28;20037;-69
2023/04/04 10:13:31;;;;;;;18.83;2.50;;;19.90;99.90;;;;;;5054831;28;20033;-70
2023/04/04 10:15:59;;;;;;;10.13;2.63;;;19.10;99.90;;;;;;5054764;28;20095;-69
2023/04/04 10:18:26;;;;;;;15.02;2.83;;;19.20;99.90;;;;;;5054215;28;20063;-69
2023/04/04 10:20:54;;;;;;;13.95;2.20;;;19.50;99.90;;;;;;5036257;28;20063;-68
2023/04/04 10:23:22;;;;;;;13.38;2.58;;;19.60;99.90;;;;;;5054289;28;20036;-70
2023/04/04 10:25:49;;;;;;;14.88;2.70;;;19.80;99.90;;;;;;5054119;28;20060;-70
2023/04/04 10:28:17;;;;;;;12.27;2.60;;;19.70;99.90;;;;;;5053971;28;20055;-69
2023/04/04 10:30:57;;;;;;;11.75;2.55;;;20.00;99.90;;;;;;5053621;28;20079;-70
2023/04/04 10:33:43;;;;;;;13.48;2.67;;;20.00;99.90;;;;;;5054274;28;20036;-69
2023/04/04 10:36:11;;;;;;;10.55;2.13;;;19.50;99.90;;;;;;5054347;28;20082;-70
2023/04/04 10:38:44;;;;;;;12.35;2.20;;;19.30;99.90;;;;;;5053851;28;20473;-69
2023/04/04 10:41:11;;;;;;;11.07;2.67;;;19.30;99.90;;;;;;5053340;28;20033;-70
2023/04/04 10:43:43;;;;;;;13.90;2.95;;;19.30;99.90;;;;;;5053621;28;20131;-69
2023/04/04 10:46:16;;;;;;;12.05;2.50;;;19.50;99.90;;;;;;5053638;28;20334;-68
2023/04/04 10:48:43;;;;;;;12.82;2.10;;;19.80;99.90;;;;;;5053335;28;20429;-70
2023/04/04 10:51:11;;;;;;;19.73;3.00;;;19.90;99.90;;;;;;5052462;28;20560;-71
2023/04/04 10:53:40;;;;;;;12.85;2.40;;;20.10;99.90;;;;;;5034601;28;20048;-68
2023/04/04 10:56:09;;;;;;;10.52;1.95;;;19.80;99.90;;;;;;5034524;28;20060;-70
2023/04/04 10:58:41;;;;;;;13.48;2.22;;;20.00;99.90;;;;;;5052777;28;20119;-66
2023/04/04 11:01:07;;;;;;;13.23;3.03;;;19.90;99.90;;;;;;5034322;28;20047;-67
2023/04/04 11:04:12;;;;;;;17.20;3.70;;;19.70;99.90;;;;;;5052335;28;20029;-66
2023/04/04 11:07:09;;;;;;;13.65;3.15;;;20.10;99.90;;;;;;5052495;28;20025;-69
2023/04/04 11:09:56;;;;;;;7.82;2.22;;;20.00;99.90;;;;;;5048621;28;20040;-70
2023/04/04 11:12:35;;;;;;;13.32;3.88;;;20.40;99.90;;;;;;5052725;28;20048;-70
2023/04/04 11:15:11;;;;;;;16.27;3.95;;;20.20;99.90;;;;;;5053126;28;20029;-69
2023/04/04 11:18:05;;;;;;;21.73;5.00;;;20.00;99.90;;;;;;5050359;28;20074;-70
2023/04/04 11:20:36;;;;;;;11.85;2.95;;;20.00;99.90;;;;;;5033354;28;20563;-70
2023/04/04 11:23:03;;;;;;;20.92;5.10;;;20.40;99.90;;;;;;5053577;28;20017;-69
2023/04/04 11:25:32;;;;;;;;;;;20.50;99.90;;;;;;5054090;28;20036;-69
2023/04/04 11:28:02;;;;;;;15.45;3.13;;;20.90;99.90;;;;;;5053543;28;19905;-70
2023/04/04 11:30:28;;;;;;;14.50;3.83;;;20.90;99.90;;;;;;5053247;28;20451;-70
2023/04/04 11:32:58;;;;;;;15.38;3.22;;;20.50;99.90;;;;;;5052949;28;20033;-70
2023/04/04 11:35:25;;;;;;;15.00;5.40;;;20.70;99.90;;;;;;5052656;28;20017;-68
2023/04/04 11:37:52;;;;;;;20.52;3.47;;;20.80;99.90;;;;;;5052664;28;20543;-69
2023/04/04 11:40:19;;;;;;;12.73;3.03;;;20.70;99.90;;;;;;5053062;28;20017;-69
2023/04/04 11:42:51;;;;;;;12.93;3.03;;;20.80;99.90;;;;;;5052883;28;20028;-70
2023/04/04 11:45:19;;;;;;;15.23;2.88;;;20.60;99.90;;;;;;5052646;28;20035;-69
2023/04/04 11:47:50;;;;;;;15.80;3.20;;;20.70;99.90;;;;;;5052244;28;20480;-68
2023/04/04 11:50:17;;;;;;;13.95;3.25;;;20.50;99.90;;;;;;5051983;28;20468;-68
2023/04/04 11:52:44;;;;;;;25.08;3.95;;;20.20;99.90;;;;;;5051759;28;20340;-68
2023/04/04 11:55:14;;;;;;;;;;;20.00;99.90;;;;;;5052792;28;20031;-69
2023/04/04 11:57:41;;;;;;;19.40;2.90;;;20.10;99.90;;;;;;5052446;28;20355;-70
2023/04/04 12:00:08;;;;;;;11.55;2.15;;;20.00;99.90;;;;;;5052591;28;20025;-70
2023/04/04 12:02:35;;;;;;;17.33;2.60;;;20.10;99.90;;;;;;5052164;28;20033;-67
2023/04/04 12:05:03;;;;;;;15.18;2.40;;;20.10;99.90;;;;;;5052569;28;20021;-67
2023/04/04 12:07:29;;;;;;;16.27;3.00;;;20.10;99.90;;;;;;5052817;28;20025;-64
2023/04/04 12:09:57;;;;;;;15.38;2.78;;;19.90;99.90;;;;;;5053507;28;20406;-63
2023/04/04 12:12:25;;;;;;;18.25;3.33;;;20.10;99.90;;;;;;5035128;28;20059;-64
2023/04/04 12:14:53;;;;;;;26.38;3.75;;;20.30;99.90;;;;;;5053169;28;20385;-63
2023/04/04 12:17:21;;;;;;;17.40;2.88;;;20.00;99.90;;;;;;5053289;28;20033;-63
2023/04/04 12:19:48;;;;;;;15.27;2.78;;;19.80;99.90;;;;;;5052843;28;20036;-64
2023/04/04 12:22:15;;;;;;;13.85;2.30;;;19.70;99.90;;;;;;5053513;28;20200;-65
2023/04/04 12:24:41;;;;;;;15.85;3.38;;;19.60;99.90;;;;;;5052908;28;20058;-63
2023/04/04 12:27:08;;;;;;;21.30;3.20;;;19.70;99.90;;;;;;5052791;28;20346;-65
2023/04/04 12:29:36;;;;;;;18.40;3.35;;;19.70;99.90;;;;;;5053425;28;20453;-63
2023/04/04 12:32:04;;;;;;;17.90;3.00;;;19.70;99.90;;;;;;5053559;28;20037;-65
2023/04/04 12:34:41;;;;;;;14.77;2.55;;;19.80;99.90;;;;;;5052715;28;20033;-64
2023/04/04 12:37:10;;;;;;;13.98;2.45;;;19.90;99.90;;;;;;5053237;28;20063;-63
2023/04/04 12:39:48;;;;;;;12.98;2.47;;;19.70;99.90;;;;;;5052843;28;20116;-64
2023/04/04 12:42:23;;;;;;;15.68;2.60;;;19.50;99.90;;;;;;5053112;28;20025;-65
2023/04/04 12:44:52;;;;;;;23.00;2.92;;;19.70;99.90;;;;;;5053063;28;20025;-64